createdAt,value
2022-09-29T00:00:49.730Z,35.75
2022-09-29T00:03:16.641Z,41.90
2022-09-29T00:05:54.054Z,49.05
2022-09-29T00:08:22.828Z,39.88
2022-09-29T00:10:49.577Z,43.45
2022-09-29T00:13:17.757Z,43.20
2022-09-29T00:15:44.632Z,34.42
2022-09-29T00:18:14.441Z,34.22
2022-09-29T00:20:41.557Z,36.83
2022-09-29T00:23:08.287Z,36.13
2022-09-29T00:25:35.101Z,37.13
2022-09-29T00:28:02.036Z,36.13
2022-09-29T00:30:28.845Z,46.28
2022-09-29T00:32:55.545Z,29.65
2022-09-29T00:35:22.265Z,38.05
2022-09-29T00:37:48.921Z,34.45
2022-09-29T00:40:15.571Z,34.88
2022-09-29T00:42:42.552Z,48.47
2022-09-29T00:45:24.317Z,29.95
2022-09-29T00:47:58.018Z,32.33
2022-09-29T00:50:40.652Z,37.90
2022-09-29T00:53:12.799Z,34.50
2022-09-29T00:55:44.461Z,39.95
2022-09-29T00:58:37.205Z,174.48
2022-09-29T01:01:05.285Z,142.52
2022-09-29T01:03:40.303Z,101.45
2022-09-29T01:06:13.029Z,77.70
2022-09-29T01:09:01.669Z,71.25
2022-09-29T01:11:30.028Z,45.28
2022-09-29T01:14:03.633Z,42.22
2022-09-29T01:16:32.419Z,50.85
2022-09-29T01:19:01.242Z,39.15
2022-09-29T01:21:46.491Z,34.63
2022-09-29T01:24:31.106Z,37.60
2022-09-29T01:27:24.770Z,39.17
2022-09-29T01:30:19.087Z,37.60
2022-09-29T01:33:13.634Z,40.88
2022-09-29T01:36:01.931Z,39.25
2022-09-29T01:38:53.434Z,49.10
2022-09-29T01:41:41.598Z,42.88
2022-09-29T01:44:20.580Z,42.30
2022-09-29T01:46:59.912Z,50.75
2022-09-29T01:49:30.707Z,44.58
2022-09-29T01:52:03.647Z,42.00
2022-09-29T01:54:51.023Z,44.40
2022-09-29T01:57:31.641Z,31.30
2022-09-29T02:00:05.431Z,33.50
2022-09-29T02:02:43.255Z,30.17
2022-09-29T02:05:18.325Z,33.22
2022-09-29T02:07:46.219Z,34.67
2022-09-29T02:10:18.703Z,31.88
2022-09-29T02:12:46.113Z,39.08
2022-09-29T02:15:15.236Z,40.28
2022-09-29T02:17:44.488Z,35.95
2022-09-29T02:20:12.139Z,37.70
2022-09-29T02:22:41.168Z,37.67
2022-09-29T02:30:01.836Z,34.42
2022-09-29T02:32:29.785Z,32.78
2022-09-29T02:34:56.669Z,44.85
2022-09-29T02:37:32.759Z,28.98
2022-09-29T02:40:30.126Z,32.85
2022-09-29T02:43:02.639Z,36.40
2022-09-29T02:45:41.338Z,30.77
2022-09-29T02:48:32.851Z,31.23
2022-09-29T02:51:13.366Z,29.67
2022-09-29T02:54:14.665Z,34.30
2022-09-29T02:56:50.153Z,30.02
2022-09-29T02:59:44.302Z,24.90
2022-09-29T03:02:11.022Z,32.72
2022-09-29T03:04:38.165Z,30.30
2022-09-29T03:07:04.858Z,31.48
2022-09-29T03:09:31.593Z,29.23
2022-09-29T03:11:58.636Z,30.88
2022-09-29T03:14:25.279Z,39.58
2022-09-29T03:16:51.897Z,38.03
2022-09-29T03:19:18.565Z,37.40
2022-09-29T03:21:45.272Z,35.50
2022-09-29T03:24:12.013Z,33.20
2022-09-29T03:26:38.672Z,47.50
2022-09-29T03:29:05.336Z,36.97
2022-09-29T03:31:32.092Z,44.03
2022-09-29T03:33:58.749Z,33.42
2022-09-29T03:36:25.412Z,42.28
2022-09-29T03:38:52.044Z,35.60
2022-09-29T03:41:18.756Z,31.55
2022-09-29T03:43:45.483Z,35.90
2022-09-29T03:46:12.372Z,32.60
2022-09-29T03:48:39.378Z,26.83
2022-09-29T03:51:06.290Z,37.15
2022-09-29T03:53:35.708Z,33.75
2022-09-29T03:56:03.342Z,30.58
2022-09-29T03:58:30.162Z,33.15
2022-09-29T04:00:57.224Z,33.28
2022-09-29T04:03:23.985Z,38.38
2022-09-29T04:05:50.695Z,32.35
2022-09-29T04:08:17.530Z,38.85
2022-09-29T04:10:46.638Z,35.20
2022-09-29T04:15:43.226Z,33.95
2022-09-29T04:18:09.971Z,45.78
2022-09-29T04:20:38.150Z,39.47
2022-09-29T04:23:04.809Z,34.92
2022-09-29T04:25:31.466Z,32.20
2022-09-29T04:27:58.106Z,33.83
2022-09-29T04:30:24.780Z,37.63
2022-09-29T04:32:51.428Z,38.63
2022-09-29T04:35:18.077Z,36.47
2022-09-29T04:37:44.715Z,42.72
2022-09-29T04:40:11.865Z,40.22
2022-09-29T04:42:38.522Z,43.28
2022-09-29T04:45:05.715Z,42.25
2022-09-29T04:47:32.403Z,48.13
2022-09-29T04:49:59.019Z,39.17
2022-09-29T04:52:25.693Z,44.08
2022-09-29T04:54:52.347Z,43.67
2022-09-29T04:57:19.023Z,94.30
2022-09-29T04:59:46.428Z,79.30
2022-09-29T05:02:13.127Z,245.25
2022-09-29T05:04:39.847Z,292.42
2022-09-29T05:07:06.540Z,222.77
2022-09-29T05:09:34.120Z,92.65
2022-09-29T05:12:01.549Z,230.68
2022-09-29T05:14:28.264Z,88.10
2022-09-29T05:16:55.826Z,325.98
2022-09-29T05:19:22.452Z,90.88
2022-09-29T05:21:49.188Z,128.32
2022-09-29T05:24:15.803Z,83.22
2022-09-29T05:26:42.572Z,60.95
2022-09-29T05:29:09.211Z,106.07
2022-09-29T05:31:36.033Z,64.20
2022-09-29T05:34:02.746Z,50.67
2022-09-29T05:36:29.369Z,63.38
2022-09-29T05:38:56.383Z,44.38
2022-09-29T05:41:23.433Z,38.72
2022-09-29T05:43:51.269Z,35.33
2022-09-29T05:46:18.702Z,46.65
2022-09-29T05:48:49.758Z,40.65
2022-09-29T05:51:22.634Z,41.30
2022-09-29T05:53:49.961Z,42.10
2022-09-29T05:56:21.821Z,45.92
2022-09-29T05:58:48.771Z,38.40
2022-09-29T06:01:18.623Z,39.92
2022-09-29T06:03:45.477Z,35.08
2022-09-29T06:06:14.685Z,35.90
2022-09-29T06:08:41.995Z,45.28
2022-09-29T06:11:10.817Z,37.80
2022-09-29T06:13:41.605Z,46.90
2022-09-29T06:16:09.254Z,64.57
2022-09-29T06:18:36.473Z,56.13
2022-09-29T06:21:03.916Z,54.83
2022-09-29T06:23:30.727Z,47.80
2022-09-29T06:26:02.212Z,42.40
2022-09-29T06:28:29.419Z,45.80
2022-09-29T06:31:00.844Z,42.33
2022-09-29T06:33:28.291Z,50.78
2022-09-29T06:36:27.629Z,46.13
2022-09-29T06:38:54.278Z,37.85
2022-09-29T06:41:21.087Z,41.20
2022-09-29T06:43:47.730Z,33.63
2022-09-29T06:46:14.559Z,28.90
2022-09-29T06:48:41.240Z,39.08
2022-09-29T06:51:10.456Z,29.95
2022-09-29T06:53:38.796Z,34.70
2022-09-29T06:56:06.390Z,27.92
2022-09-29T06:58:34.074Z,25.50
2022-09-29T07:01:02.133Z,23.45
2022-09-29T07:03:29.739Z,21.30
2022-09-29T07:06:18.408Z,23.27
2022-09-29T07:08:43.123Z,28.10
2022-09-29T07:11:10.462Z,31.27
2022-09-29T07:13:37.788Z,30.83
2022-09-29T07:16:12.154Z,25.15
2022-09-29T07:18:40.975Z,27.70
2022-09-29T07:21:13.053Z,18.45
2022-09-29T07:23:39.719Z,22.70
2022-09-29T07:26:07.443Z,22.70
2022-09-29T07:28:34.951Z,23.30
2022-09-29T07:31:13.216Z,19.63
2022-09-29T07:33:41.775Z,18.60
2022-09-29T07:36:08.815Z,18.58
2022-09-29T07:38:35.479Z,18.88
2022-09-29T07:41:08.019Z,25.92
2022-09-29T07:43:35.136Z,28.13
2022-09-29T07:46:02.062Z,15.85
2022-09-29T07:48:31.900Z,12.77
2022-09-29T07:51:13.476Z,14.80
2022-09-29T07:53:40.702Z,11.90
2022-09-29T07:56:13.025Z,12.43
2022-09-29T07:58:40.120Z,11.27
2022-09-29T08:01:10.717Z,12.38
2022-09-29T08:03:41.325Z,12.52
2022-09-29T08:06:08.808Z,10.52
2022-09-29T08:08:37.332Z,12.05
2022-09-29T08:11:11.691Z,11.43
2022-09-29T08:13:41.034Z,10.65
2022-09-29T08:16:11.185Z,10.43
2022-09-29T08:18:38.250Z,10.40
2022-09-29T08:21:05.685Z,9.27
2022-09-29T08:23:38.835Z,10.80
2022-09-29T08:26:08.831Z,10.48
2022-09-29T08:28:37.682Z,10.43
2022-09-29T08:31:06.179Z,9.25
2022-09-29T08:33:33.648Z,9.93
2022-09-29T08:36:01.115Z,11.27
2022-09-29T08:38:28.279Z,10.40
2022-09-29T08:40:56.710Z,8.90
2022-09-29T08:43:35.430Z,9.90
2022-09-29T08:46:10.824Z,9.35
2022-09-29T08:48:50.493Z,11.07
2022-09-29T08:51:42.066Z,12.38
2022-09-29T08:54:38.901Z,12.05
2022-09-29T08:57:07.015Z,11.27
2022-09-29T08:59:33.794Z,11.75
2022-09-29T09:02:12.643Z,8.23
2022-09-29T09:04:45.540Z,10.35
2022-09-29T09:07:45.977Z,8.50
2022-09-29T09:10:18.944Z,8.48
2022-09-29T09:12:52.131Z,11.13
2022-09-29T09:15:36.330Z,10.18
2022-09-29T09:18:34.233Z,9.85
2022-09-29T09:21:15.296Z,11.63
2022-09-29T09:23:59.796Z,11.55
2022-09-29T09:26:43.620Z,9.70
2022-09-29T09:29:30.691Z,10.05
2022-09-29T09:32:05.373Z,14.45
2022-09-29T09:34:44.757Z,14.77
2022-09-29T09:37:25.982Z,12.38
2022-09-29T09:39:55.605Z,12.85
2022-09-29T09:42:27.124Z,12.45
2022-09-29T09:45:05.000Z,15.70
2022-09-29T09:47:35.224Z,14.43
2022-09-29T09:50:05.313Z,12.85
2022-09-29T09:52:57.119Z,22.90
2022-09-29T09:55:25.996Z,12.05
2022-09-29T09:58:23.861Z,16.00
2022-09-29T10:00:54.581Z,14.63
2022-09-29T10:03:21.254Z,14.68
2022-09-29T10:08:39.701Z,15.23
2022-09-29T10:11:33.631Z,15.68
2022-09-29T10:14:08.837Z,12.07
2022-09-29T10:16:42.497Z,15.35
2022-09-29T10:19:10.877Z,15.90
2022-09-29T10:21:40.587Z,16.73
2022-09-29T10:24:25.054Z,16.67
2022-09-29T10:26:53.584Z,17.20
2022-09-29T10:29:32.398Z,15.23
2022-09-29T10:32:07.764Z,15.75
2022-09-29T10:34:42.289Z,12.98
2022-09-29T10:37:29.462Z,19.40
2022-09-29T10:42:47.095Z,15.02
2022-09-29T10:45:22.646Z,16.45
2022-09-29T10:47:58.285Z,14.52
2022-09-29T10:50:35.059Z,17.35
2022-09-29T10:53:16.142Z,18.50
2022-09-29T10:55:53.593Z,17.35
2022-09-29T10:58:45.453Z,16.85
2022-09-29T11:01:19.838Z,15.88
2022-09-29T11:03:53.124Z,14.35
2022-09-29T11:06:26.606Z,15.82
2022-09-29T11:08:57.455Z,16.40
2022-09-29T11:11:29.187Z,19.20
2022-09-29T11:13:57.276Z,16.60
2022-09-29T11:16:52.795Z,17.40
2022-09-29T11:19:19.670Z,13.38
2022-09-29T11:21:55.404Z,15.43
2022-09-29T11:24:31.191Z,13.60
2022-09-29T11:27:33.194Z,17.27
2022-09-29T11:30:21.912Z,19.52
2022-09-29T11:32:51.753Z,14.48
2022-09-29T11:35:27.666Z,18.75
2022-09-29T11:38:02.858Z,14.18
2022-09-29T11:40:55.036Z,17.95
2022-09-29T11:43:46.762Z,19.15
2022-09-29T11:46:27.232Z,16.80
2022-09-29T11:49:12.874Z,19.33
2022-09-29T11:51:48.584Z,20.95
2022-09-29T11:54:18.082Z,18.55
2022-09-29T11:57:08.118Z,25.17
2022-09-29T11:59:59.285Z,31.35
2022-09-29T12:02:35.585Z,16.85
2022-09-29T12:05:30.073Z,20.52
2022-09-29T12:07:59.760Z,22.23
2022-09-29T12:11:41.919Z,17.67
2022-09-29T12:15:02.586Z,19.40
2022-09-29T12:17:33.597Z,15.55
2022-09-29T12:20:27.657Z,18.92
2022-09-29T12:22:57.004Z,18.23
2022-09-29T12:25:29.520Z,24.38
2022-09-29T12:28:06.109Z,24.65
2022-09-29T12:30:39.955Z,21.20
2022-09-29T12:33:18.046Z,22.50
2022-09-29T12:36:44.401Z,24.08
2022-09-29T12:39:28.407Z,22.02
2022-09-29T12:42:16.747Z,25.02
2022-09-29T12:45:04.308Z,18.10
2022-09-29T12:48:12.918Z,19.17
2022-09-29T12:50:44.587Z,19.60
2022-09-29T12:53:29.470Z,21.98
2022-09-29T12:56:03.937Z,19.92
2022-09-29T12:58:50.176Z,14.32
2022-09-29T13:01:33.121Z,17.17
2022-09-29T13:04:18.377Z,13.73
2022-09-29T13:07:08.279Z,14.23
2022-09-29T13:10:22.443Z,17.10
2022-09-29T13:13:07.063Z,20.40
2022-09-29T13:15:52.373Z,17.58
2022-09-29T13:18:54.127Z,20.27
2022-09-29T13:21:52.097Z,15.73
2022-09-29T13:24:46.609Z,16.23
2022-09-29T13:27:35.949Z,21.60
2022-09-29T13:30:23.165Z,17.40
2022-09-29T13:35:24.697Z,20.10
2022-09-29T13:37:57.363Z,17.95
2022-09-29T13:40:26.989Z,19.90
2022-09-29T13:43:05.700Z,14.95
2022-09-29T13:45:35.045Z,20.58
2022-09-29T13:48:24.017Z,14.88
2022-09-29T13:50:59.595Z,19.67
2022-09-29T13:53:36.065Z,18.42
2022-09-29T13:56:02.641Z,21.67
2022-09-29T13:58:32.883Z,16.33
2022-09-29T14:01:05.182Z,17.95
2022-09-29T14:03:42.290Z,18.90
2022-09-29T14:06:41.250Z,22.85
2022-09-29T14:09:14.032Z,26.67
2022-09-29T14:11:51.918Z,23.02
2022-09-29T14:14:34.985Z,24.33
2022-09-29T14:17:05.555Z,27.98
2022-09-29T14:19:38.124Z,29.52
2022-09-29T14:22:19.655Z,26.42
2022-09-29T14:24:50.569Z,28.60
2022-09-29T14:27:32.176Z,24.58
2022-09-29T14:30:13.892Z,23.80
2022-09-29T14:33:00.095Z,23.02
2022-09-29T14:35:44.857Z,20.55
2022-09-29T14:38:20.373Z,24.90
2022-09-29T14:41:27.021Z,24.17
2022-09-29T14:44:00.059Z,26.60
2022-09-29T14:46:57.634Z,21.88
2022-09-29T14:50:06.036Z,27.52
2022-09-29T14:52:48.441Z,20.83
2022-09-29T14:55:33.649Z,20.35
2022-09-29T14:58:21.680Z,22.45
2022-09-29T15:01:01.952Z,19.70
2022-09-29T15:03:35.505Z,19.45
2022-09-29T15:06:12.502Z,22.50
2022-09-29T15:08:40.025Z,23.52
2022-09-29T15:11:26.633Z,26.85
2022-09-29T15:13:55.343Z,20.20
2022-09-29T15:16:28.105Z,26.50
2022-09-29T15:19:11.022Z,21.48
2022-09-29T15:21:47.357Z,26.17
2022-09-29T15:24:34.547Z,19.48
2022-09-29T15:27:06.265Z,25.42
2022-09-29T15:29:33.070Z,33.97
2022-09-29T15:31:59.845Z,29.10
2022-09-29T15:34:26.535Z,25.85
2022-09-29T15:36:55.731Z,26.13
2022-09-29T15:39:28.256Z,30.25
2022-09-29T15:42:02.819Z,27.00
2022-09-29T15:44:33.687Z,32.28
2022-09-29T15:47:00.674Z,30.52
2022-09-29T15:49:28.562Z,26.20
2022-09-29T15:52:04.356Z,27.90
2022-09-29T15:54:35.050Z,27.58
2022-09-29T15:57:21.312Z,24.88
2022-09-29T15:59:54.189Z,29.98
2022-09-29T16:02:40.075Z,30.73
2022-09-29T16:05:14.083Z,29.52
2022-09-29T16:07:48.973Z,33.47
2022-09-29T16:10:17.752Z,23.38
2022-09-29T16:12:56.107Z,25.92
2022-09-29T16:15:25.751Z,33.40
2022-09-29T16:17:52.960Z,30.38
2022-09-29T16:20:25.765Z,30.85
2022-09-29T16:22:52.506Z,38.22
2022-09-29T16:25:27.635Z,28.40
2022-09-29T16:27:56.073Z,24.65
2022-09-29T16:30:31.922Z,27.55
2022-09-29T16:33:22.453Z,32.65
2022-09-29T16:35:54.980Z,33.30
2022-09-29T16:38:36.927Z,32.85
2022-09-29T16:41:18.804Z,29.02
2022-09-29T16:43:47.769Z,26.23
2022-09-29T16:46:18.878Z,37.45
2022-09-29T16:48:46.665Z,29.15
2022-09-29T16:54:04.053Z,32.85
2022-09-29T16:56:35.664Z,33.95
2022-09-29T16:59:09.111Z,31.98
2022-09-29T17:01:35.790Z,28.95
2022-09-29T17:04:02.491Z,31.75
2022-09-29T17:06:31.021Z,37.50
2022-09-29T17:08:59.017Z,28.35
2022-09-29T17:11:27.802Z,26.75
2022-09-29T17:13:57.320Z,44.08
2022-09-29T17:16:25.306Z,42.15
2022-09-29T17:18:53.566Z,32.72
2022-09-29T17:21:20.821Z,25.35
2022-09-29T17:23:47.526Z,28.02
2022-09-29T17:26:45.156Z,44.22
2022-09-29T17:29:11.919Z,36.65
2022-09-29T17:31:38.598Z,33.92
2022-09-29T17:34:07.469Z,30.73
2022-09-29T17:36:34.618Z,37.85
2022-09-29T17:39:01.446Z,31.92
2022-09-29T17:41:28.240Z,22.65
2022-09-29T17:43:54.973Z,33.40
2022-09-29T17:46:21.664Z,28.13
2022-09-29T17:48:49.131Z,29.52
2022-09-29T17:51:18.560Z,27.65
2022-09-29T17:53:45.532Z,32.08
2022-09-29T17:56:21.710Z,25.98
2022-09-29T17:58:49.721Z,31.13
2022-09-29T18:01:20.060Z,31.10
2022-09-29T18:03:47.999Z,46.33
2022-09-29T18:06:21.256Z,30.60
2022-09-29T18:14:01.666Z,15.70
2022-09-29T18:16:28.348Z,24.85
2022-09-29T18:18:59.127Z,29.15
2022-09-29T18:21:26.338Z,27.50
2022-09-29T18:23:53.062Z,24.02
2022-09-29T18:26:21.371Z,19.60
2022-09-29T18:28:48.974Z,23.85
2022-09-29T18:31:27.905Z,36.45
2022-09-29T18:33:54.983Z,27.52
2022-09-29T18:36:21.774Z,25.08
2022-09-29T18:38:48.487Z,18.90
2022-09-29T18:41:19.785Z,16.77
2022-09-29T18:43:47.189Z,27.48
2022-09-29T18:46:14.690Z,25.25
2022-09-29T18:48:41.923Z,26.55
2022-09-29T18:51:08.814Z,22.08
2022-09-29T18:53:35.608Z,12.43
2022-09-29T18:56:03.791Z,15.45
2022-09-29T18:58:30.946Z,18.15
2022-09-29T19:00:58.837Z,16.63
2022-09-29T19:03:27.249Z,14.55
2022-09-29T19:05:54.763Z,19.83
2022-09-29T19:08:21.871Z,26.15
2022-09-29T19:10:51.328Z,20.00
2022-09-29T19:13:18.308Z,21.45
2022-09-29T19:15:46.438Z,15.75
2022-09-29T19:18:23.476Z,20.67
2022-09-29T19:20:51.913Z,21.75
2022-09-29T19:23:21.905Z,22.98
2022-09-29T19:25:50.222Z,19.27
2022-09-29T19:28:18.223Z,27.52
2022-09-29T19:30:45.831Z,23.23
2022-09-29T19:33:15.972Z,21.45
2022-09-29T19:35:50.630Z,22.33
2022-09-29T19:38:18.212Z,26.55
2022-09-29T19:40:46.402Z,28.33
2022-09-29T19:43:14.504Z,27.08
2022-09-29T19:45:42.103Z,28.77
2022-09-29T19:48:18.912Z,22.10
2022-09-29T19:51:04.354Z,21.25
2022-09-29T19:53:31.018Z,25.17
2022-09-29T19:55:57.764Z,25.98
2022-09-29T19:58:24.649Z,17.58
2022-09-29T20:00:56.925Z,20.33
2022-09-29T20:03:23.548Z,21.50
2022-09-29T20:05:50.264Z,21.25
2022-09-29T20:08:16.898Z,15.55
2022-09-29T20:10:43.706Z,14.85
2022-09-29T20:13:11.795Z,21.23
2022-09-29T20:15:41.905Z,22.80
2022-09-29T20:18:08.610Z,24.02
2022-09-29T20:20:37.265Z,28.33
2022-09-29T20:23:04.063Z,26.00
2022-09-29T20:25:30.731Z,25.83
2022-09-29T20:27:59.074Z,36.22
2022-09-29T20:30:26.454Z,28.90
2022-09-29T20:32:53.114Z,37.03
2022-09-29T20:35:19.826Z,34.15
2022-09-29T20:37:46.861Z,24.10
2022-09-29T20:40:13.541Z,24.02
2022-09-29T20:42:42.027Z,34.67
2022-09-29T20:45:09.653Z,34.60
2022-09-29T20:47:37.106Z,49.38
2022-09-29T20:50:05.244Z,35.25
2022-09-29T20:52:32.253Z,43.15
2022-09-29T20:55:00.922Z,52.85
2022-09-29T20:57:27.569Z,49.28
2022-09-29T20:59:55.693Z,50.25
2022-09-29T21:02:22.429Z,61.13
2022-09-29T21:04:49.146Z,50.40
2022-09-29T21:07:34.430Z,43.42
2022-09-29T21:10:01.556Z,37.25
2022-09-29T21:12:28.180Z,34.08
2022-09-29T21:14:54.872Z,41.88
2022-09-29T21:17:21.492Z,35.38
2022-09-29T21:19:48.166Z,32.42
2022-09-29T21:22:14.876Z,38.33
2022-09-29T21:24:41.622Z,36.72
2022-09-29T21:27:09.355Z,36.13
2022-09-29T21:29:36.105Z,29.20
2022-09-29T21:32:03.164Z,34.70
2022-09-29T21:34:29.808Z,35.20
2022-09-29T21:36:56.580Z,33.80
2022-09-29T21:39:23.208Z,40.10
2022-09-29T21:41:49.903Z,32.20
2022-09-29T21:44:23.367Z,30.77
2022-09-29T21:46:50.699Z,31.38
2022-09-29T21:49:19.275Z,24.45
2022-09-29T21:51:48.305Z,25.13
2022-09-29T21:56:49.630Z,29.67
2022-09-29T21:59:18.507Z,26.85
2022-09-29T22:01:45.908Z,27.65
2022-09-29T22:04:13.199Z,28.13
2022-09-29T22:06:40.623Z,28.10
2022-09-29T22:09:08.627Z,34.25
2022-09-29T22:11:38.214Z,33.90
2022-09-29T22:14:05.962Z,24.85
2022-09-29T22:16:34.150Z,35.53
2022-09-29T22:19:23.339Z,28.15
2022-09-29T22:21:50.793Z,28.75
2022-09-29T22:24:17.459Z,29.80
2022-09-29T22:26:44.099Z,31.55
2022-09-29T22:29:10.742Z,29.60
2022-09-29T22:31:40.417Z,23.33
2022-09-29T22:34:07.771Z,25.13
2022-09-29T22:36:35.639Z,28.63
2022-09-29T22:39:03.970Z,29.10
2022-09-29T22:41:31.079Z,29.52
2022-09-29T22:43:59.745Z,31.70
2022-09-29T22:46:28.037Z,27.02
2022-09-29T22:48:54.959Z,29.77
2022-09-29T22:51:21.644Z,33.70
2022-09-29T22:53:48.581Z,28.13
2022-09-29T22:56:18.565Z,28.77
2022-09-29T22:58:45.729Z,26.42
2022-09-29T23:01:16.197Z,25.90
2022-09-29T23:03:44.481Z,36.03
2022-09-29T23:06:11.963Z,26.73
2022-09-29T23:08:39.063Z,30.13
2022-09-29T23:11:07.961Z,34.28
2022-09-29T23:13:40.142Z,35.72
2022-09-29T23:16:12.468Z,36.20
2022-09-29T23:18:45.833Z,40.65
2022-09-29T23:21:14.846Z,48.78
2022-09-29T23:23:41.534Z,39.33
2022-09-29T23:26:08.648Z,34.42
2022-09-29T23:28:35.892Z,39.50
2022-09-29T23:31:04.664Z,37.08
2022-09-29T23:33:31.572Z,35.38
2022-09-29T23:36:11.985Z,36.80
2022-09-29T23:38:57.589Z,32.15
2022-09-29T23:41:27.186Z,30.17
2022-09-29T23:43:57.663Z,34.80
2022-09-29T23:46:25.857Z,35.25
2022-09-29T23:48:52.658Z,27.15
2022-09-29T23:51:19.465Z,35.15
2022-09-29T23:53:46.103Z,30.92
2022-09-29T23:56:12.822Z,25.50
2022-09-29T23:58:39.523Z,27.55
